createdAt,value
2022-10-06T00:02:23.231Z,101341.78
2022-10-06T00:05:46.137Z,101356.56
2022-10-06T00:09:04.101Z,101358.72
2022-10-06T00:12:27.135Z,101366.91
2022-10-06T00:15:51.170Z,101364.16
2022-10-06T00:19:08.056Z,101360.78
2022-10-06T00:22:25.152Z,101359.03
2022-10-06T00:25:48.139Z,101357.34
2022-10-06T00:29:12.174Z,101369.19
2022-10-06T00:32:36.126Z,101388.41
2022-10-06T00:36:00.148Z,101374.22
2022-10-06T00:39:24.177Z,101367.53
2022-10-06T00:42:48.211Z,101371.09
2022-10-06T00:46:12.237Z,101378.91
2022-10-06T00:49:48.148Z,101370.03
2022-10-06T00:53:13.284Z,101365.56
2022-10-06T00:56:37.171Z,101383.56
2022-10-06T01:00:01.171Z,101375.91
2022-10-06T01:03:31.157Z,101378.69
2022-10-06T01:07:01.212Z,101383.88
2022-10-06T01:10:27.211Z,101382.69
2022-10-06T01:13:51.181Z,101384.78
2022-10-06T01:17:18.161Z,101387.25
2022-10-06T01:20:42.190Z,101387.31
2022-10-06T01:24:06.127Z,101395.03
2022-10-06T01:27:31.178Z,101393.13
2022-10-06T01:31:01.254Z,101386.53
2022-10-06T01:34:26.237Z,101395.16
2022-10-06T01:37:50.154Z,101395.38
2022-10-06T01:41:14.188Z,101402.28
2022-10-06T01:44:39.195Z,101404.09
2022-10-06T01:48:03.149Z,101408.66
2022-10-06T01:51:30.199Z,101401.72
2022-10-06T01:54:54.143Z,101394.63
2022-10-06T01:58:18.269Z,101416.31
2022-10-06T02:01:44.251Z,101406.81
2022-10-06T02:05:08.152Z,101405.47
2022-10-06T02:08:36.255Z,101404.00
2022-10-06T02:12:00.296Z,101401.13
2022-10-06T02:15:29.176Z,101406.22
2022-10-06T02:18:53.202Z,101406.94
2022-10-06T02:22:17.242Z,101421.00
2022-10-06T02:25:41.251Z,101410.66
2022-10-06T02:29:06.197Z,101417.63
2022-10-06T02:32:31.267Z,101435.59
2022-10-06T02:35:55.275Z,101427.31
2022-10-06T02:39:19.203Z,101413.38
2022-10-06T02:42:43.210Z,101412.47
2022-10-06T02:46:19.258Z,101420.34
2022-10-06T02:49:43.234Z,101435.06
2022-10-06T02:53:08.226Z,101422.66
2022-10-06T02:56:34.183Z,101437.16
2022-10-06T02:59:58.216Z,101434.72
2022-10-06T03:03:23.188Z,101434.75
2022-10-06T03:06:47.289Z,101435.09
2022-10-06T03:10:17.273Z,101446.06
2022-10-06T03:13:41.258Z,101444.06
2022-10-06T03:17:05.199Z,101444.28
2022-10-06T03:20:36.194Z,101446.47
2022-10-06T03:24:04.160Z,101450.78
2022-10-06T03:27:29.225Z,101461.38
2022-10-06T03:30:56.339Z,101447.09
2022-10-06T03:34:23.197Z,101446.31
2022-10-06T03:37:49.186Z,101447.19
2022-10-06T03:41:30.254Z,101456.22
2022-10-06T03:44:55.151Z,101459.22
2022-10-06T03:48:19.231Z,101467.69
2022-10-06T03:51:49.155Z,101465.81
2022-10-06T03:55:18.235Z,101460.06
2022-10-06T03:58:43.220Z,101466.31
2022-10-06T04:02:08.272Z,101483.56
2022-10-06T04:05:34.182Z,101471.16
2022-10-06T04:08:58.255Z,101485.16
2022-10-06T04:12:23.186Z,101492.94
2022-10-06T04:15:47.274Z,101493.66
2022-10-06T04:19:13.251Z,101497.94
2022-10-06T04:22:36.805Z,101513.53
2022-10-06T04:25:56.069Z,101513.13
2022-10-06T04:29:20.332Z,101524.22
2022-10-06T04:32:47.227Z,101515.78
2022-10-06T04:36:13.243Z,101529.53
2022-10-06T04:39:37.219Z,101549.03
2022-10-06T04:43:01.234Z,101537.09
2022-10-06T04:46:42.174Z,101557.69
2022-10-06T04:50:10.193Z,101567.53
2022-10-06T04:53:54.177Z,101567.03
2022-10-06T04:57:19.233Z,101564.47
2022-10-06T05:00:44.222Z,101582.59
2022-10-06T05:04:11.273Z,101596.44
2022-10-06T05:07:35.228Z,101595.44
2022-10-06T05:10:58.210Z,101596.19
2022-10-06T05:14:22.218Z,101602.34
2022-10-06T05:17:47.229Z,101602.75
2022-10-06T05:21:22.260Z,101611.09
2022-10-06T05:24:48.214Z,101609.91
2022-10-06T05:28:13.281Z,101625.94
2022-10-06T05:31:40.398Z,101634.03
2022-10-06T05:35:05.242Z,101647.16
2022-10-06T05:38:30.818Z,101658.78
2022-10-06T05:41:55.234Z,101654.47
2022-10-06T05:45:19.273Z,101661.59
2022-10-06T05:48:45.182Z,101663.25
2022-10-06T05:52:12.271Z,101664.16
2022-10-06T05:55:37.270Z,101674.69
2022-10-06T05:59:06.239Z,101678.25
2022-10-06T06:02:30.299Z,101672.47
2022-10-06T06:05:58.200Z,101685.31
2022-10-06T06:09:28.231Z,101695.06
2022-10-06T06:12:56.243Z,101700.63
2022-10-06T06:16:30.311Z,101706.81
2022-10-06T06:19:48.836Z,101718.44
2022-10-06T06:23:06.299Z,101713.88
2022-10-06T06:26:32.269Z,101719.63
2022-10-06T06:29:56.250Z,101721.22
2022-10-06T06:33:21.225Z,101728.28
2022-10-06T06:36:55.224Z,101733.44
2022-10-06T06:40:20.233Z,101751.41
2022-10-06T06:43:44.211Z,101758.03
2022-10-06T06:47:20.915Z,101757.19
2022-10-06T06:50:49.251Z,101758.34
2022-10-06T06:54:14.252Z,101755.84
2022-10-06T06:57:43.308Z,101770.34
2022-10-06T07:01:08.351Z,101770.69
2022-10-06T07:04:34.294Z,101787.22
2022-10-06T07:08:00.232Z,101776.81
2022-10-06T07:11:48.265Z,101797.59
2022-10-06T07:15:36.240Z,101800.69
2022-10-06T07:19:23.820Z,101811.41
2022-10-06T07:23:00.711Z,101810.31
2022-10-06T07:26:18.265Z,101823.28
2022-10-06T07:29:43.229Z,101827.56
2022-10-06T07:33:07.318Z,101834.72
2022-10-06T07:36:32.258Z,101843.81
2022-10-06T07:39:57.219Z,101855.25
2022-10-06T07:43:21.281Z,101868.28
2022-10-06T07:46:46.295Z,101874.53
2022-10-06T07:50:24.298Z,101885.81
2022-10-06T07:53:49.284Z,101897.72
2022-10-06T07:57:43.262Z,101905.91
2022-10-06T08:01:07.257Z,101913.63
2022-10-06T08:04:31.256Z,101925.34
2022-10-06T08:07:55.241Z,101927.69
2022-10-06T08:11:21.365Z,101946.16
2022-10-06T08:14:47.241Z,101943.03
2022-10-06T08:18:33.679Z,101946.78
2022-10-06T08:21:50.827Z,101951.53
2022-10-06T08:25:08.649Z,101950.03
2022-10-06T08:28:34.380Z,101961.59
2022-10-06T08:31:58.460Z,101962.50
2022-10-06T08:35:22.286Z,101976.69
2022-10-06T08:38:46.329Z,101979.38
2022-10-06T08:42:11.239Z,101986.50
2022-10-06T08:45:44.323Z,101990.03
2022-10-06T08:49:07.301Z,101997.03
2022-10-06T08:52:39.286Z,101999.25
2022-10-06T08:56:14.309Z,102004.06
2022-10-06T08:59:39.311Z,102009.06
2022-10-06T09:03:04.316Z,102009.88
2022-10-06T09:06:52.297Z,102014.88
2022-10-06T09:10:42.277Z,102007.13
2022-10-06T09:14:22.253Z,102009.22
2022-10-06T09:17:55.308Z,102018.72
2022-10-06T09:21:21.335Z,102026.84
2022-10-06T09:24:58.305Z,102021.31
2022-10-06T09:28:27.344Z,102032.47
2022-10-06T09:31:59.310Z,102016.66
2022-10-06T09:35:38.306Z,102023.66
2022-10-06T09:39:07.331Z,102024.94
2022-10-06T09:42:52.269Z,102040.56
2022-10-06T09:46:36.339Z,102040.38
2022-10-06T09:50:37.323Z,102045.84
2022-10-06T09:54:28.340Z,102040.94
2022-10-06T09:57:52.316Z,102041.41
2022-10-06T10:01:24.349Z,102037.72
2022-10-06T10:04:53.267Z,102054.97
2022-10-06T10:08:38.335Z,102048.22
2022-10-06T10:12:41.274Z,102056.72
2022-10-06T10:16:12.378Z,102059.09
2022-10-06T10:19:44.277Z,102063.03
2022-10-06T10:23:12.318Z,102072.13
2022-10-06T10:26:59.894Z,102073.19
2022-10-06T10:30:19.350Z,102087.63
2022-10-06T10:34:12.495Z,102093.25
2022-10-06T10:37:50.297Z,102084.47
2022-10-06T10:41:17.344Z,102099.47
2022-10-06T10:44:52.273Z,102100.25
2022-10-06T10:48:25.298Z,102099.13
2022-10-06T10:51:57.370Z,102105.06
2022-10-06T10:55:43.369Z,102112.38
2022-10-06T10:59:15.295Z,102105.72
2022-10-06T11:02:38.376Z,102119.56
2022-10-06T11:06:12.287Z,102131.91
2022-10-06T11:09:52.320Z,102128.25
2022-10-06T11:13:34.478Z,102140.72
2022-10-06T11:17:01.295Z,102151.13
2022-10-06T11:21:01.351Z,102162.44
2022-10-06T11:24:46.367Z,102167.50
2022-10-06T11:28:21.428Z,102174.78
2022-10-06T11:32:04.409Z,102178.44
2022-10-06T11:35:38.338Z,102183.25
2022-10-06T11:39:09.336Z,102178.72
2022-10-06T11:42:50.335Z,102190.31
2022-10-06T11:46:31.051Z,102188.78
2022-10-06T11:50:07.330Z,102194.56
2022-10-06T11:53:53.319Z,102193.94
2022-10-06T11:57:17.324Z,102198.31
2022-10-06T12:00:41.297Z,102194.66
2022-10-06T12:04:24.842Z,102196.97
2022-10-06T12:08:11.347Z,102200.59
2022-10-06T12:11:55.402Z,102199.75
2022-10-06T12:16:58.220Z,102213.47
2022-10-06T12:19:26.326Z,102212.25
2022-10-06T12:22:55.353Z,102214.03
2022-10-06T12:26:44.411Z,102212.50
2022-10-06T12:30:11.927Z,102212.88
2022-10-06T12:33:46.420Z,102213.34
2022-10-06T12:37:44.347Z,102228.13
2022-10-06T12:41:09.332Z,102236.66
2022-10-06T12:44:45.303Z,102233.47
2022-10-06T12:48:10.400Z,102233.38
2022-10-06T12:51:51.359Z,102237.88
2022-10-06T12:55:43.399Z,102235.66
2022-10-06T12:59:09.407Z,102237.94
2022-10-06T13:02:35.471Z,102244.28
2022-10-06T13:06:08.313Z,102243.19
2022-10-06T13:09:31.402Z,102248.69
2022-10-06T13:12:58.323Z,102251.03
2022-10-06T13:16:24.393Z,102243.13
2022-10-06T13:19:48.372Z,102266.38
2022-10-06T13:23:18.391Z,102263.13
2022-10-06T13:26:45.320Z,102266.28
2022-10-06T13:30:38.348Z,102272.00
2022-10-06T13:34:13.374Z,102266.59
2022-10-06T13:37:37.391Z,102272.13
2022-10-06T13:41:37.329Z,102275.97
2022-10-06T13:45:22.371Z,102268.50
2022-10-06T13:48:46.341Z,102261.63
2022-10-06T13:52:12.923Z,102271.31
2022-10-06T13:55:40.363Z,102283.00
2022-10-06T13:59:04.431Z,102270.88
2022-10-06T14:02:36.428Z,102287.25
2022-10-06T14:06:00.370Z,102285.06
2022-10-06T14:09:26.329Z,102290.81
2022-10-06T14:12:51.376Z,102296.50
2022-10-06T14:16:23.464Z,102285.28
2022-10-06T14:19:53.403Z,102294.59
2022-10-06T14:23:17.423Z,102292.53
2022-10-06T14:26:47.365Z,102297.25
2022-10-06T14:30:12.523Z,102293.72
2022-10-06T14:33:38.411Z,102299.44
2022-10-06T14:37:05.393Z,102294.31
2022-10-06T14:40:30.369Z,102299.81
2022-10-06T14:43:55.352Z,102304.50
2022-10-06T14:47:19.394Z,102307.41
2022-10-06T14:50:43.427Z,102314.63
2022-10-06T14:54:09.344Z,102301.06
2022-10-06T14:57:33.436Z,102306.75
2022-10-06T15:00:57.394Z,102302.91
2022-10-06T15:04:32.416Z,102305.91
2022-10-06T15:08:14.339Z,102312.25
2022-10-06T15:11:40.391Z,102316.06
2022-10-06T15:15:05.409Z,102320.69
2022-10-06T15:18:30.392Z,102326.38
2022-10-06T15:21:56.409Z,102331.69
2022-10-06T15:25:39.350Z,102330.63
2022-10-06T15:29:09.396Z,102343.63
2022-10-06T15:32:33.382Z,102349.50
2022-10-06T15:35:58.364Z,102344.72
2022-10-06T15:39:25.559Z,102351.44
2022-10-06T15:42:48.398Z,102343.75
2022-10-06T15:46:12.446Z,102351.56
2022-10-06T15:49:40.471Z,102352.97
2022-10-06T15:53:05.381Z,102351.44
2022-10-06T15:56:29.419Z,102362.19
2022-10-06T15:59:53.419Z,102361.84
2022-10-06T16:03:32.431Z,102358.50
2022-10-06T16:06:58.402Z,102372.22
2022-10-06T16:10:21.587Z,102363.56
2022-10-06T16:13:46.383Z,102370.94
2022-10-06T16:17:10.402Z,102366.47
2022-10-06T16:20:34.377Z,102361.19
2022-10-06T16:23:58.365Z,102377.81
2022-10-06T16:27:24.446Z,102379.91
2022-10-06T16:30:48.416Z,102384.63
2022-10-06T16:34:12.455Z,102378.19
2022-10-06T16:37:36.369Z,102380.28
2022-10-06T16:41:14.425Z,102378.19
2022-10-06T16:44:39.371Z,102385.84
2022-10-06T16:48:03.420Z,102392.28
2022-10-06T16:51:38.400Z,102396.47
2022-10-06T16:55:04.408Z,102395.19
2022-10-06T16:58:29.423Z,102395.91
2022-10-06T17:01:53.433Z,102404.13
2022-10-06T17:05:17.455Z,102394.34
2022-10-06T17:08:40.449Z,102408.00
2022-10-06T17:12:15.367Z,102410.84
2022-10-06T17:15:38.449Z,102417.88
2022-10-06T17:19:06.382Z,102417.63
2022-10-06T17:22:30.472Z,102419.28
2022-10-06T17:25:54.411Z,102432.03
2022-10-06T17:29:26.537Z,102427.00
2022-10-06T17:32:52.465Z,102444.72
2022-10-06T17:36:25.454Z,102439.50
2022-10-06T17:39:49.462Z,102457.44
2022-10-06T17:43:07.424Z,102459.72
2022-10-06T17:46:33.440Z,102465.69
2022-10-06T17:49:58.412Z,102466.38
2022-10-06T17:53:22.424Z,102467.06
2022-10-06T17:56:48.480Z,102478.63
2022-10-06T18:00:13.451Z,102476.19
2022-10-06T18:03:38.457Z,102486.50
2022-10-06T18:07:03.407Z,102496.38
2022-10-06T18:10:45.451Z,102492.91
2022-10-06T18:14:11.421Z,102494.69
2022-10-06T18:17:36.449Z,102512.47
2022-10-06T18:21:00.432Z,102512.47
2022-10-06T18:24:35.468Z,102512.47
2022-10-06T18:28:00.515Z,102515.81
2022-10-06T18:31:24.530Z,102519.44
2022-10-06T18:38:36.484Z,102524.56
2022-10-06T18:42:00.432Z,102529.41
2022-10-06T18:45:43.458Z,102524.34
2022-10-06T18:49:08.390Z,102541.91
2022-10-06T18:52:32.486Z,102545.22
2022-10-06T18:55:57.393Z,102544.03
2022-10-06T18:59:24.474Z,102543.19
2022-10-06T19:02:48.693Z,102551.66
2022-10-06T19:06:11.478Z,102565.22
2022-10-06T19:09:37.440Z,102570.06
2022-10-06T19:13:01.428Z,102552.16
2022-10-06T19:16:26.493Z,102572.00
2022-10-06T19:20:03.444Z,102571.00
2022-10-06T19:23:27.488Z,102571.97
2022-10-06T19:26:52.414Z,102588.31
2022-10-06T19:30:17.503Z,102586.38
2022-10-06T19:33:41.454Z,102597.25
2022-10-06T19:37:06.499Z,102596.91
2022-10-06T19:40:24.088Z,102595.69
2022-10-06T19:43:41.474Z,102597.09
2022-10-06T19:47:05.451Z,102604.56
2022-10-06T19:50:30.457Z,102604.59
2022-10-06T19:53:59.467Z,102617.69
2022-10-06T19:57:23.519Z,102620.34
2022-10-06T20:00:49.395Z,102629.06
2022-10-06T20:04:13.536Z,102627.91
2022-10-06T20:07:38.411Z,102640.84
2022-10-06T20:11:03.449Z,102646.06
2022-10-06T20:14:34.464Z,102639.97
2022-10-06T20:17:58.475Z,102646.50
2022-10-06T20:21:27.416Z,102644.84
2022-10-06T20:24:51.448Z,102645.91
2022-10-06T20:28:17.485Z,102651.44
2022-10-06T20:31:48.455Z,102645.69
2022-10-06T20:35:12.476Z,102654.59
2022-10-06T20:38:55.502Z,102644.09
2022-10-06T20:42:15.169Z,102656.28
2022-10-06T20:45:32.509Z,102653.19
2022-10-06T20:48:58.482Z,102669.50
2022-10-06T20:52:22.495Z,102669.91
2022-10-06T20:55:46.445Z,102668.34
2022-10-06T20:59:10.513Z,102664.56
2022-10-06T21:02:35.532Z,102669.31
2022-10-06T21:06:05.418Z,102674.53
2022-10-06T21:09:32.462Z,102680.78
2022-10-06T21:12:56.420Z,102686.22
2022-10-06T21:16:20.539Z,102688.81
2022-10-06T21:19:45.449Z,102683.50
2022-10-06T21:23:10.462Z,102692.88
2022-10-06T21:26:36.436Z,102689.38
2022-10-06T21:30:00.457Z,102700.66
2022-10-06T21:33:24.451Z,102696.88
2022-10-06T21:36:48.471Z,102690.66
2022-10-06T21:40:12.453Z,102706.00
2022-10-06T21:43:39.470Z,102691.47
2022-10-06T21:47:10.494Z,102693.63
2022-10-06T21:50:34.465Z,102699.22
2022-10-06T21:53:58.443Z,102697.78
2022-10-06T21:57:23.523Z,102702.75
2022-10-06T22:00:47.480Z,102706.84
2022-10-06T22:04:12.468Z,102707.97
2022-10-06T22:07:36.435Z,102707.25
2022-10-06T22:11:00.478Z,102708.88
2022-10-06T22:14:31.445Z,102704.00
2022-10-06T22:17:55.464Z,102705.66
2022-10-06T22:21:28.457Z,102714.63
2022-10-06T22:24:52.483Z,102708.31
2022-10-06T22:28:16.473Z,102705.47
2022-10-06T22:31:41.539Z,102709.06
2022-10-06T22:35:06.446Z,102711.50
2022-10-06T22:38:30.569Z,102711.59
2022-10-06T22:41:54.446Z,102711.09
2022-10-06T22:45:18.502Z,102699.00
2022-10-06T22:48:43.453Z,102707.09
2022-10-06T22:52:07.514Z,102700.84
2022-10-06T22:55:31.471Z,102691.47
2022-10-06T22:58:55.516Z,102678.97
2022-10-06T23:02:20.451Z,102687.63
2022-10-06T23:05:44.510Z,102679.78
2022-10-06T23:09:08.462Z,102691.13
2022-10-06T23:12:32.514Z,102692.47
2022-10-06T23:15:56.509Z,102698.53
2022-10-06T23:19:21.520Z,102691.13
2022-10-06T23:22:45.478Z,102685.75
2022-10-06T23:26:09.508Z,102692.53
2022-10-06T23:29:33.484Z,102686.47
2022-10-06T23:32:56.503Z,102685.69
2022-10-06T23:36:23.660Z,102681.81
2022-10-06T23:39:46.501Z,102670.38
2022-10-06T23:43:10.545Z,102684.03
2022-10-06T23:46:34.604Z,102663.13
2022-10-06T23:49:58.481Z,102687.44
2022-10-06T23:53:22.534Z,102677.69
2022-10-06T23:56:46.540Z,102679.84
